sensor_id;sensor_type;location;lat;lon;timestamp;temperature;humidity
17795;DHT22;9021;50.882;4.326;2023-07-29T00:02:11;21.40;99.90
17795;DHT22;9021;50.882;4.326;2023-07-29T00:04:37;21.50;99.90
17795;DHT22;9021;50.882;4.326;2023-07-29T00:07:02;21.40;99.90
17795;DHT22;9021;50.882;4.326;2023-07-29T00:09:28;21.40;99.90
17795;DHT22;9021;50.882;4.326;2023-07-29T00:11:53;21.30;99.90
17795;DHT22;9021;50.882;4.326;2023-07-29T00:14:19;21.20;99.90
17795;DHT22;9021;50.882;4.326;2023-07-29T00:16:44;21.20;99.90
17795;DHT22;9021;50.882;4.326;2023-07-29T00:19:10;21.20;99.90
17795;DHT22;9021;50.882;4.326;2023-07-29T00:21:35;21.10;99.90
17795;DHT22;9021;50.882;4.326;2023-07-29T00:24:01;21.00;99.90
17795;DHT22;9021;50.882;4.326;2023-07-29T00:26:26;21.00;99.90
17795;DHT22;9021;50.882;4.326;2023-07-29T00:28:56;21.00;99.90
17795;DHT22;9021;50.882;4.326;2023-07-29T00:31:22;21.00;99.90
17795;DHT22;9021;50.882;4.326;2023-07-29T00:33:48;21.00;99.90
17795;DHT22;9021;50.882;4.326;2023-07-29T00:36:13;21.00;99.90
17795;DHT22;9021;50.882;4.326;2023-07-29T00:38:39;20.90;99.90
17795;DHT22;9021;50.882;4.326;2023-07-29T00:41:04;21.00;99.90
17795;DHT22;9021;50.882;4.326;2023-07-29T00:43:30;20.90;99.90
17795;DHT22;9021;50.882;4.326;2023-07-29T00:45:56;20.80;99.90
17795;DHT22;9021;50.882;4.326;2023-07-29T00:48:23;20.80;99.90
17795;DHT22;9021;50.882;4.326;2023-07-29T00:50:49;20.80;99.90
17795;DHT22;9021;50.882;4.326;2023-07-29T00:53:14;20.80;99.90
17795;DHT22;9021;50.882;4.326;2023-07-29T00:55:40;20.70;99.90
17795;DHT22;9021;50.882;4.326;2023-07-29T00:58:06;20.70;99.90
17795;DHT22;9021;50.882;4.326;2023-07-29T01:00:32;20.60;99.90
17795;DHT22;9021;50.882;4.326;2023-07-29T01:02:57;20.60;99.90
17795;DHT22;9021;50.882;4.326;2023-07-29T01:05:23;20.50;99.90
17795;DHT22;9021;50.882;4.326;2023-07-29T01:07:56;20.50;99.90
17795;DHT22;9021;50.882;4.326;2023-07-29T01:15:31;20.50;99.90
17795;DHT22;9021;50.882;4.326;2023-07-29T01:17:59;20.50;99.90
17795;DHT22;9021;50.882;4.326;2023-07-29T01:20:29;20.50;99.90
17795;DHT22;9021;50.882;4.326;2023-07-29T01:22:57;20.40;99.90
17795;DHT22;9021;50.882;4.326;2023-07-29T01:25:23;20.40;99.90
17795;DHT22;9021;50.882;4.326;2023-07-29T01:27:49;20.40;99.90
17795;DHT22;9021;50.882;4.326;2023-07-29T01:30:17;20.30;99.90
17795;DHT22;9021;50.882;4.326;2023-07-29T01:32:43;20.30;99.90
17795;DHT22;9021;50.882;4.326;2023-07-29T01:35:15;20.30;99.90
17795;DHT22;9021;50.882;4.326;2023-07-29T01:37:43;20.30;99.90
17795;DHT22;9021;50.882;4.326;2023-07-29T01:40:10;20.40;99.90
17795;DHT22;9021;50.882;4.326;2023-07-29T01:42:36;20.30;99.90
17795;DHT22;9021;50.882;4.326;2023-07-29T01:45:01;20.20;99.90
17795;DHT22;9021;50.882;4.326;2023-07-29T01:47:27;20.10;99.90
17795;DHT22;9021;50.882;4.326;2023-07-29T01:49:52;20.20;99.90
17795;DHT22;9021;50.882;4.326;2023-07-29T01:52:18;20.20;99.90
17795;DHT22;9021;50.882;4.326;2023-07-29T01:54:43;20.10;99.90
17795;DHT22;9021;50.882;4.326;2023-07-29T01:57:09;20.10;99.90
17795;DHT22;9021;50.882;4.326;2023-07-29T01:59:34;20.10;99.90
17795;DHT22;9021;50.882;4.326;2023-07-29T02:02:00;20.10;99.90
17795;DHT22;9021;50.882;4.326;2023-07-29T02:04:25;20.10;99.90
17795;DHT22;9021;50.882;4.326;2023-07-29T02:06:51;20.00;99.90
17795;DHT22;9021;50.882;4.326;2023-07-29T02:09:16;20.00;99.90
17795;DHT22;9021;50.882;4.326;2023-07-29T02:11:42;20.10;99.90
17795;DHT22;9021;50.882;4.326;2023-07-29T02:14:07;20.10;99.90
17795;DHT22;9021;50.882;4.326;2023-07-29T02:16:33;20.00;99.90
17795;DHT22;9021;50.882;4.326;2023-07-29T02:18:59;19.90;99.90
17795;DHT22;9021;50.882;4.326;2023-07-29T02:21:25;20.00;99.90
17795;DHT22;9021;50.882;4.326;2023-07-29T02:23:50;19.90;99.90
17795;DHT22;9021;50.882;4.326;2023-07-29T02:26:16;19.80;99.90
17795;DHT22;9021;50.882;4.326;2023-07-29T02:28:42;19.80;99.90
17795;DHT22;9021;50.882;4.326;2023-07-29T02:31:23;19.80;99.90
17795;DHT22;9021;50.882;4.326;2023-07-29T02:33:48;19.70;99.90
17795;DHT22;9021;50.882;4.326;2023-07-29T02:36:17;19.80;99.90
17795;DHT22;9021;50.882;4.326;2023-07-29T02:38:43;19.80;99.90
17795;DHT22;9021;50.882;4.326;2023-07-29T02:41:09;19.80;99.90
17795;DHT22;9021;50.882;4.326;2023-07-29T02:43:37;19.80;99.90
17795;DHT22;9021;50.882;4.326;2023-07-29T02:46:03;19.80;99.90
17795;DHT22;9021;50.882;4.326;2023-07-29T02:48:29;19.90;99.90
17795;DHT22;9021;50.882;4.326;2023-07-29T02:50:54;19.90;99.90
17795;DHT22;9021;50.882;4.326;2023-07-29T02:53:21;19.90;99.90
17795;DHT22;9021;50.882;4.326;2023-07-29T02:55:47;19.90;99.90
17795;DHT22;9021;50.882;4.326;2023-07-29T02:58:12;19.90;99.90
17795;DHT22;9021;50.882;4.326;2023-07-29T03:00:38;19.90;99.90
17795;DHT22;9021;50.882;4.326;2023-07-29T03:03:07;19.90;99.90
17795;DHT22;9021;50.882;4.326;2023-07-29T03:05:32;19.80;99.90
17795;DHT22;9021;50.882;4.326;2023-07-29T03:07:58;19.80;99.90
17795;DHT22;9021;50.882;4.326;2023-07-29T03:10:23;19.80;99.90
17795;DHT22;9021;50.882;4.326;2023-07-29T03:12:49;19.70;99.90
17795;DHT22;9021;50.882;4.326;2023-07-29T03:15:14;19.70;99.90
17795;DHT22;9021;50.882;4.326;2023-07-29T03:17:40;19.70;99.90
17795;DHT22;9021;50.882;4.326;2023-07-29T03:20:05;19.70;99.90
17795;DHT22;9021;50.882;4.326;2023-07-29T03:22:31;19.60;99.90
17795;DHT22;9021;50.882;4.326;2023-07-29T03:24:57;19.60;99.90
17795;DHT22;9021;50.882;4.326;2023-07-29T03:27:22;19.60;99.90
17795;DHT22;9021;50.882;4.326;2023-07-29T03:29:48;19.60;99.90
17795;DHT22;9021;50.882;4.326;2023-07-29T03:32:13;19.50;99.90
17795;DHT22;9021;50.882;4.326;2023-07-29T03:34:39;19.50;99.90
17795;DHT22;9021;50.882;4.326;2023-07-29T03:37:05;19.50;99.90
17795;DHT22;9021;50.882;4.326;2023-07-29T03:39:31;19.50;99.90
17795;DHT22;9021;50.882;4.326;2023-07-29T03:41:57;19.60;99.90
17795;DHT22;9021;50.882;4.326;2023-07-29T03:44:22;19.50;99.90
17795;DHT22;9021;50.882;4.326;2023-07-29T03:46:48;19.50;99.90
17795;DHT22;9021;50.882;4.326;2023-07-29T03:49:13;19.70;99.90
17795;DHT22;9021;50.882;4.326;2023-07-29T03:51:39;19.60;99.90
17795;DHT22;9021;50.882;4.326;2023-07-29T03:54:04;19.60;99.90
17795;DHT22;9021;50.882;4.326;2023-07-29T03:56:30;19.50;99.90
17795;DHT22;9021;50.882;4.326;2023-07-29T03:59:02;19.50;99.90
17795;DHT22;9021;50.882;4.326;2023-07-29T04:01:27;19.50;99.90
17795;DHT22;9021;50.882;4.326;2023-07-29T04:03:53;19.50;99.90
17795;DHT22;9021;50.882;4.326;2023-07-29T04:06:19;19.40;99.90
17795;DHT22;9021;50.882;4.326;2023-07-29T04:08:45;19.30;99.90
17795;DHT22;9021;50.882;4.326;2023-07-29T04:11:11;18.10;99.90
17795;DHT22;9021;50.882;4.326;2023-07-29T04:13:36;19.30;99.90
17795;DHT22;9021;50.882;4.326;2023-07-29T04:16:03;19.20;99.90
17795;DHT22;9021;50.882;4.326;2023-07-29T04:18:29;19.30;99.90
17795;DHT22;9021;50.882;4.326;2023-07-29T04:20:54;19.30;99.90
17795;DHT22;9021;50.882;4.326;2023-07-29T04:23:20;19.40;99.90
17795;DHT22;9021;50.882;4.326;2023-07-29T04:25:45;19.40;99.90
17795;DHT22;9021;50.882;4.326;2023-07-29T04:28:11;19.40;99.90
17795;DHT22;9021;50.882;4.326;2023-07-29T04:30:36;19.40;99.90
17795;DHT22;9021;50.882;4.326;2023-07-29T04:33:02;19.40;99.90
17795;DHT22;9021;50.882;4.326;2023-07-29T04:35:27;19.30;99.90
17795;DHT22;9021;50.882;4.326;2023-07-29T04:37:53;19.30;99.90
17795;DHT22;9021;50.882;4.326;2023-07-29T04:40:18;19.30;99.90
17795;DHT22;9021;50.882;4.326;2023-07-29T04:42:44;19.30;99.90
17795;DHT22;9021;50.882;4.326;2023-07-29T04:45:09;19.30;99.90
17795;DHT22;9021;50.882;4.326;2023-07-29T04:47:35;19.30;99.90
17795;DHT22;9021;50.882;4.326;2023-07-29T04:50:00;19.20;99.90
17795;DHT22;9021;50.882;4.326;2023-07-29T04:52:26;19.20;99.90
17795;DHT22;9021;50.882;4.326;2023-07-29T04:54:51;19.30;99.90
17795;DHT22;9021;50.882;4.326;2023-07-29T04:57:17;19.30;99.90
17795;DHT22;9021;50.882;4.326;2023-07-29T04:59:42;19.30;99.90
17795;DHT22;9021;50.882;4.326;2023-07-29T05:02:08;19.40;99.90
17795;DHT22;9021;50.882;4.326;2023-07-29T05:04:33;19.20;99.90
17795;DHT22;9021;50.882;4.326;2023-07-29T05:06:58;19.20;99.90
17795;DHT22;9021;50.882;4.326;2023-07-29T05:09:24;19.10;99.90
17795;DHT22;9021;50.882;4.326;2023-07-29T05:11:49;19.20;99.90
17795;DHT22;9021;50.882;4.326;2023-07-29T05:14:15;19.10;99.90
17795;DHT22;9021;50.882;4.326;2023-07-29T05:16:42;19.10;99.90
17795;DHT22;9021;50.882;4.326;2023-07-29T05:19:07;19.20;99.90
17795;DHT22;9021;50.882;4.326;2023-07-29T05:21:33;19.20;99.90
17795;DHT22;9021;50.882;4.326;2023-07-29T05:23:58;19.30;99.90
17795;DHT22;9021;50.882;4.326;2023-07-29T05:26:24;19.40;99.90
17795;DHT22;9021;50.882;4.326;2023-07-29T05:28:49;19.50;99.90
17795;DHT22;9021;50.882;4.326;2023-07-29T05:31:15;19.50;99.90
17795;DHT22;9021;50.882;4.326;2023-07-29T05:33:40;20.40;99.90
17795;DHT22;9021;50.882;4.326;2023-07-29T05:36:06;19.40;99.90
17795;DHT22;9021;50.882;4.326;2023-07-29T05:38:31;19.40;99.90
17795;DHT22;9021;50.882;4.326;2023-07-29T05:40:57;19.50;99.90
17795;DHT22;9021;50.882;4.326;2023-07-29T05:43:25;19.60;99.90
17795;DHT22;9021;50.882;4.326;2023-07-29T05:45:51;19.70;99.90
17795;DHT22;9021;50.882;4.326;2023-07-29T05:48:16;19.80;99.90
17795;DHT22;9021;50.882;4.326;2023-07-29T05:50:42;19.80;99.90
17795;DHT22;9021;50.882;4.326;2023-07-29T05:53:07;19.80;99.90
17795;DHT22;9021;50.882;4.326;2023-07-29T05:55:35;19.80;99.90
17795;DHT22;9021;50.882;4.326;2023-07-29T05:58:00;19.90;99.90
17795;DHT22;9021;50.882;4.326;2023-07-29T06:00:26;19.80;99.90
17795;DHT22;9021;50.882;4.326;2023-07-29T06:02:51;19.80;99.90
17795;DHT22;9021;50.882;4.326;2023-07-29T06:05:17;19.90;99.90
17795;DHT22;9021;50.882;4.326;2023-07-29T06:07:42;19.90;99.90
17795;DHT22;9021;50.882;4.326;2023-07-29T06:10:13;20.00;99.90
17795;DHT22;9021;50.882;4.326;2023-07-29T06:12:38;20.00;99.90
17795;DHT22;9021;50.882;4.326;2023-07-29T06:15:04;20.20;99.90
17795;DHT22;9021;50.882;4.326;2023-07-29T06:17:30;20.30;99.90
17795;DHT22;9021;50.882;4.326;2023-07-29T06:19:55;20.50;99.90
17795;DHT22;9021;50.882;4.326;2023-07-29T06:22:21;20.70;99.90
17795;DHT22;9021;50.882;4.326;2023-07-29T06:24:46;20.70;99.90
17795;DHT22;9021;50.882;4.326;2023-07-29T06:27:12;20.80;99.90
17795;DHT22;9021;50.882;4.326;2023-07-29T06:29:37;21.00;99.90
17795;DHT22;9021;50.882;4.326;2023-07-29T06:32:03;21.10;99.90
17795;DHT22;9021;50.882;4.326;2023-07-29T06:34:28;21.30;99.90
17795;DHT22;9021;50.882;4.326;2023-07-29T06:36:54;21.30;99.90
17795;DHT22;9021;50.882;4.326;2023-07-29T06:39:19;21.30;99.90
17795;DHT22;9021;50.882;4.326;2023-07-29T06:41:45;21.20;99.90
17795;DHT22;9021;50.882;4.326;2023-07-29T06:44:11;21.20;99.90
17795;DHT22;9021;50.882;4.326;2023-07-29T06:46:36;21.10;99.90
17795;DHT22;9021;50.882;4.326;2023-07-29T06:49:02;21.20;99.90
17795;DHT22;9021;50.882;4.326;2023-07-29T06:51:27;21.30;99.90
17795;DHT22;9021;50.882;4.326;2023-07-29T06:53:57;21.30;99.90
17795;DHT22;9021;50.882;4.326;2023-07-29T06:56:23;21.30;99.90
17795;DHT22;9021;50.882;4.326;2023-07-29T06:58:48;21.30;99.90
17795;DHT22;9021;50.882;4.326;2023-07-29T07:01:14;21.30;99.90
17795;DHT22;9021;50.882;4.326;2023-07-29T07:03:39;21.10;99.90
17795;DHT22;9021;50.882;4.326;2023-07-29T07:06:05;21.00;99.90
17795;DHT22;9021;50.882;4.326;2023-07-29T07:08:31;21.90;99.90
17795;DHT22;9021;50.882;4.326;2023-07-29T07:10:56;20.90;99.90
17795;DHT22;9021;50.882;4.326;2023-07-29T07:13:22;20.90;99.90
17795;DHT22;9021;50.882;4.326;2023-07-29T07:15:47;21.00;99.90
17795;DHT22;9021;50.882;4.326;2023-07-29T07:18:13;21.00;99.90
17795;DHT22;9021;50.882;4.326;2023-07-29T07:20:38;21.10;99.90
17795;DHT22;9021;50.882;4.326;2023-07-29T07:23:04;20.90;99.90
17795;DHT22;9021;50.882;4.326;2023-07-29T07:25:31;20.90;99.90
17795;DHT22;9021;50.882;4.326;2023-07-29T07:27:56;20.90;99.90
17795;DHT22;9021;50.882;4.326;2023-07-29T07:30:22;20.90;99.90
17795;DHT22;9021;50.882;4.326;2023-07-29T07:32:47;20.80;99.90
17795;DHT22;9021;50.882;4.326;2023-07-29T07:35:13;20.70;99.90
17795;DHT22;9021;50.882;4.326;2023-07-29T07:37:38;20.60;99.90
17795;DHT22;9021;50.882;4.326;2023-07-29T07:40:04;20.60;99.90
17795;DHT22;9021;50.882;4.326;2023-07-29T07:42:29;20.70;99.90
17795;DHT22;9021;50.882;4.326;2023-07-29T07:44:55;20.80;99.90
17795;DHT22;9021;50.882;4.326;2023-07-29T07:47:20;21.00;99.90
17795;DHT22;9021;50.882;4.326;2023-07-29T07:49:46;21.40;99.90
17795;DHT22;9021;50.882;4.326;2023-07-29T07:52:11;21.50;99.90
17795;DHT22;9021;50.882;4.326;2023-07-29T07:54:37;21.60;99.90
17795;DHT22;9021;50.882;4.326;2023-07-29T07:57:02;21.80;99.90
17795;DHT22;9021;50.882;4.326;2023-07-29T07:59:28;22.20;99.90
17795;DHT22;9021;50.882;4.326;2023-07-29T08:01:53;22.80;99.90
17795;DHT22;9021;50.882;4.326;2023-07-29T08:04:19;23.30;99.90
17795;DHT22;9021;50.882;4.326;2023-07-29T08:06:44;23.60;99.90
17795;DHT22;9021;50.882;4.326;2023-07-29T08:09:09;23.90;99.90
17795;DHT22;9021;50.882;4.326;2023-07-29T08:11:35;24.00;99.90
17795;DHT22;9021;50.882;4.326;2023-07-29T08:14:04;24.40;99.90
17795;DHT22;9021;50.882;4.326;2023-07-29T08:16:29;24.90;99.90
17795;DHT22;9021;50.882;4.326;2023-07-29T08:18:55;25.30;99.90
17795;DHT22;9021;50.882;4.326;2023-07-29T08:21:20;25.60;99.90
17795;DHT22;9021;50.882;4.326;2023-07-29T08:23:46;25.30;99.90
17795;DHT22;9021;50.882;4.326;2023-07-29T08:26:11;25.40;99.90
17795;DHT22;9021;50.882;4.326;2023-07-29T08:28:38;25.50;99.90
17795;DHT22;9021;50.882;4.326;2023-07-29T08:31:04;25.80;99.90
17795;DHT22;9021;50.882;4.326;2023-07-29T08:33:30;25.60;99.90
17795;DHT22;9021;50.882;4.326;2023-07-29T08:35:56;25.50;99.90
17795;DHT22;9021;50.882;4.326;2023-07-29T08:38:22;25.50;99.90
17795;DHT22;9021;50.882;4.326;2023-07-29T08:40:55;25.50;99.90
17795;DHT22;9021;50.882;4.326;2023-07-29T08:43:23;25.60;99.90
17795;DHT22;9021;50.882;4.326;2023-07-29T08:45:51;25.70;99.90
17795;DHT22;9021;50.882;4.326;2023-07-29T08:48:18;25.80;99.90
17795;DHT22;9021;50.882;4.326;2023-07-29T08:50:46;25.80;99.90
17795;DHT22;9021;50.882;4.326;2023-07-29T08:53:12;26.00;99.90
17795;DHT22;9021;50.882;4.326;2023-07-29T08:55:38;27.00;99.90
17795;DHT22;9021;50.882;4.326;2023-07-29T08:58:04;28.30;99.90
17795;DHT22;9021;50.882;4.326;2023-07-29T09:00:29;29.70;99.80
17795;DHT22;9021;50.882;4.326;2023-07-29T09:02:55;30.50;98.70
17795;DHT22;9021;50.882;4.326;2023-07-29T09:05:23;30.30;97.80
17795;DHT22;9021;50.882;4.326;2023-07-29T09:07:49;30.30;97.80
17795;DHT22;9021;50.882;4.326;2023-07-29T09:10:16;29.70;97.80
17795;DHT22;9021;50.882;4.326;2023-07-29T09:12:41;29.00;98.10
17795;DHT22;9021;50.882;4.326;2023-07-29T09:15:07;28.30;98.80
17795;DHT22;9021;50.882;4.326;2023-07-29T09:17:32;27.70;99.50
17795;DHT22;9021;50.882;4.326;2023-07-29T09:19:58;27.50;99.70
17795;DHT22;9021;50.882;4.326;2023-07-29T09:22:23;27.60;99.80
17795;DHT22;9021;50.882;4.326;2023-07-29T09:24:50;27.60;99.90
17795;DHT22;9021;50.882;4.326;2023-07-29T09:27:23;27.20;99.90
17795;DHT22;9021;50.882;4.326;2023-07-29T09:29:49;26.90;99.90
17795;DHT22;9021;50.882;4.326;2023-07-29T09:32:18;26.70;99.90
17795;DHT22;9021;50.882;4.326;2023-07-29T09:34:44;26.10;99.90
17795;DHT22;9021;50.882;4.326;2023-07-29T09:37:09;25.70;99.90
17795;DHT22;9021;50.882;4.326;2023-07-29T09:39:43;25.30;99.90
17795;DHT22;9021;50.882;4.326;2023-07-29T09:42:11;25.20;99.90
17795;DHT22;9021;50.882;4.326;2023-07-29T09:44:36;24.80;99.90
17795;DHT22;9021;50.882;4.326;2023-07-29T09:47:02;24.60;99.90
17795;DHT22;9021;50.882;4.326;2023-07-29T09:49:27;24.30;99.90
17795;DHT22;9021;50.882;4.326;2023-07-29T09:51:55;24.20;99.90
17795;DHT22;9021;50.882;4.326;2023-07-29T09:54:21;24.20;99.90
17795;DHT22;9021;50.882;4.326;2023-07-29T09:56:46;24.10;99.90
17795;DHT22;9021;50.882;4.326;2023-07-29T09:59:12;24.30;99.90
17795;DHT22;9021;50.882;4.326;2023-07-29T10:01:38;24.50;99.90
17795;DHT22;9021;50.882;4.326;2023-07-29T10:04:04;25.00;99.90
17795;DHT22;9021;50.882;4.326;2023-07-29T10:06:30;25.50;99.90
17795;DHT22;9021;50.882;4.326;2023-07-29T10:08:56;25.90;99.90
17795;DHT22;9021;50.882;4.326;2023-07-29T10:11:22;26.10;99.90
17795;DHT22;9021;50.882;4.326;2023-07-29T10:13:50;26.50;99.90
17795;DHT22;9021;50.882;4.326;2023-07-29T10:16:16;26.80;99.90
17795;DHT22;9021;50.882;4.326;2023-07-29T10:18:43;26.90;99.90
17795;DHT22;9021;50.882;4.326;2023-07-29T10:21:09;26.80;99.90
17795;DHT22;9021;50.882;4.326;2023-07-29T10:23:37;26.80;99.90
17795;DHT22;9021;50.882;4.326;2023-07-29T10:26:05;26.40;99.90
17795;DHT22;9021;50.882;4.326;2023-07-29T10:28:31;26.40;99.90
17795;DHT22;9021;50.882;4.326;2023-07-29T10:30:57;26.50;99.90
17795;DHT22;9021;50.882;4.326;2023-07-29T10:33:23;26.70;99.90
17795;DHT22;9021;50.882;4.326;2023-07-29T10:35:49;26.60;99.90
17795;DHT22;9021;50.882;4.326;2023-07-29T10:38:15;26.20;99.90
17795;DHT22;9021;50.882;4.326;2023-07-29T10:40:45;25.90;99.90
17795;DHT22;9021;50.882;4.326;2023-07-29T10:43:11;27.60;99.90
17795;DHT22;9021;50.882;4.326;2023-07-29T10:45:38;24.50;99.90
17795;DHT22;9021;50.882;4.326;2023-07-29T10:48:10;23.90;99.90
17795;DHT22;9021;50.882;4.326;2023-07-29T10:50:35;23.50;99.90
17795;DHT22;9021;50.882;4.326;2023-07-29T10:53:01;23.00;99.90
17795;DHT22;9021;50.882;4.326;2023-07-29T10:55:31;22.80;99.90
17795;DHT22;9021;50.882;4.326;2023-07-29T10:58:13;22.60;99.90
17795;DHT22;9021;50.882;4.326;2023-07-29T11:00:42;22.60;99.90
17795;DHT22;9021;50.882;4.326;2023-07-29T11:03:09;22.50;99.90
17795;DHT22;9021;50.882;4.326;2023-07-29T11:08:16;22.20;99.90
17795;DHT22;9021;50.882;4.326;2023-07-29T11:10:42;22.20;99.90
17795;DHT22;9021;50.882;4.326;2023-07-29T11:13:08;21.40;99.90
17795;DHT22;9021;50.882;4.326;2023-07-29T11:15:35;21.90;99.90
17795;DHT22;9021;50.882;4.326;2023-07-29T11:18:01;21.60;99.90
17795;DHT22;9021;50.882;4.326;2023-07-29T11:20:30;21.40;99.90
17795;DHT22;9021;50.882;4.326;2023-07-29T11:22:57;21.50;99.90
17795;DHT22;9021;50.882;4.326;2023-07-29T11:25:23;21.60;99.90
17795;DHT22;9021;50.882;4.326;2023-07-29T11:27:53;21.70;99.90
17795;DHT22;9021;50.882;4.326;2023-07-29T11:30:19;21.90;99.90
17795;DHT22;9021;50.882;4.326;2023-07-29T11:32:45;22.10;99.90
17795;DHT22;9021;50.882;4.326;2023-07-29T11:35:11;22.60;99.90
17795;DHT22;9021;50.882;4.326;2023-07-29T11:37:38;23.50;99.90
17795;DHT22;9021;50.882;4.326;2023-07-29T11:40:04;23.70;99.90
17795;DHT22;9021;50.882;4.326;2023-07-29T11:42:33;23.80;99.90
17795;DHT22;9021;50.882;4.326;2023-07-29T11:44:59;24.10;99.90
17795;DHT22;9021;50.882;4.326;2023-07-29T11:47:25;24.40;99.90
17795;DHT22;9021;50.882;4.326;2023-07-29T11:49:51;24.90;99.90
17795;DHT22;9021;50.882;4.326;2023-07-29T11:52:16;25.30;99.90
17795;DHT22;9021;50.882;4.326;2023-07-29T11:54:48;26.20;99.90
17795;DHT22;9021;50.882;4.326;2023-07-29T11:57:14;26.30;99.90
17795;DHT22;9021;50.882;4.326;2023-07-29T11:59:43;26.50;99.90
17795;DHT22;9021;50.882;4.326;2023-07-29T12:02:15;26.50;99.90
17795;DHT22;9021;50.882;4.326;2023-07-29T12:04:41;26.50;99.90
17795;DHT22;9021;50.882;4.326;2023-07-29T12:07:08;26.20;99.90
17795;DHT22;9021;50.882;4.326;2023-07-29T12:09:34;25.80;99.90
17795;DHT22;9021;50.882;4.326;2023-07-29T12:12:00;25.40;99.90
17795;DHT22;9021;50.882;4.326;2023-07-29T12:14:26;24.90;99.90
17795;DHT22;9021;50.882;4.326;2023-07-29T12:16:52;24.50;99.90
17795;DHT22;9021;50.882;4.326;2023-07-29T12:19:18;24.20;99.90
17795;DHT22;9021;50.882;4.326;2023-07-29T12:21:44;24.00;99.90
17795;DHT22;9021;50.882;4.326;2023-07-29T12:24:12;23.90;99.90
17795;DHT22;9021;50.882;4.326;2023-07-29T12:26:37;23.90;99.90
17795;DHT22;9021;50.882;4.326;2023-07-29T12:29:16;24.00;99.90
17795;DHT22;9021;50.882;4.326;2023-07-29T12:31:41;24.40;99.90
17795;DHT22;9021;50.882;4.326;2023-07-29T12:34:07;26.00;99.90
17795;DHT22;9021;50.882;4.326;2023-07-29T12:36:42;24.90;99.90
17795;DHT22;9021;50.882;4.326;2023-07-29T12:41:43;25.10;99.90
17795;DHT22;9021;50.882;4.326;2023-07-29T12:44:08;25.10;99.90
17795;DHT22;9021;50.882;4.326;2023-07-29T12:46:34;25.30;99.90
17795;DHT22;9021;50.882;4.326;2023-07-29T12:48:59;25.60;99.90
17795;DHT22;9021;50.882;4.326;2023-07-29T12:51:25;26.10;99.90
17795;DHT22;9021;50.882;4.326;2023-07-29T12:53:50;26.30;99.90
17795;DHT22;9021;50.882;4.326;2023-07-29T12:56:16;26.80;99.90
17795;DHT22;9021;50.882;4.326;2023-07-29T12:58:41;27.00;99.90
17795;DHT22;9021;50.882;4.326;2023-07-29T13:01:07;26.90;99.90
17795;DHT22;9021;50.882;4.326;2023-07-29T13:03:32;26.60;99.90
17795;DHT22;9021;50.882;4.326;2023-07-29T13:05:58;26.40;99.90
17795;DHT22;9021;50.882;4.326;2023-07-29T13:08:23;26.70;99.90
17795;DHT22;9021;50.882;4.326;2023-07-29T13:10:48;26.90;99.90
17795;DHT22;9021;50.882;4.326;2023-07-29T13:13:14;26.90;99.90
17795;DHT22;9021;50.882;4.326;2023-07-29T13:15:39;27.00;99.90
17795;DHT22;9021;50.882;4.326;2023-07-29T13:18:05;27.10;99.90
17795;DHT22;9021;50.882;4.326;2023-07-29T13:20:30;27.00;99.90
17795;DHT22;9021;50.882;4.326;2023-07-29T13:22:56;26.90;99.90
17795;DHT22;9021;50.882;4.326;2023-07-29T13:25:21;26.90;99.90
17795;DHT22;9021;50.882;4.326;2023-07-29T13:27:47;26.60;99.90
17795;DHT22;9021;50.882;4.326;2023-07-29T13:30:12;26.40;99.90
17795;DHT22;9021;50.882;4.326;2023-07-29T13:32:38;26.10;99.90
17795;DHT22;9021;50.882;4.326;2023-07-29T13:35:03;26.20;99.90
17795;DHT22;9021;50.882;4.326;2023-07-29T13:37:29;26.10;99.90
17795;DHT22;9021;50.882;4.326;2023-07-29T13:39:54;26.00;99.90
17795;DHT22;9021;50.882;4.326;2023-07-29T13:42:20;26.00;99.90
17795;DHT22;9021;50.882;4.326;2023-07-29T13:44:45;26.00;99.90
17795;DHT22;9021;50.882;4.326;2023-07-29T13:47:11;26.00;99.90
17795;DHT22;9021;50.882;4.326;2023-07-29T13:49:36;26.00;99.90
17795;DHT22;9021;50.882;4.326;2023-07-29T13:52:02;26.10;99.90
17795;DHT22;9021;50.882;4.326;2023-07-29T13:54:28;26.20;99.90
17795;DHT22;9021;50.882;4.326;2023-07-29T13:56:54;26.20;99.90
17795;DHT22;9021;50.882;4.326;2023-07-29T13:59:19;26.40;99.90
17795;DHT22;9021;50.882;4.326;2023-07-29T14:01:45;26.60;99.90
17795;DHT22;9021;50.882;4.326;2023-07-29T14:04:10;26.70;99.90
17795;DHT22;9021;50.882;4.326;2023-07-29T14:06:35;26.80;99.90
17795;DHT22;9021;50.882;4.326;2023-07-29T14:09:01;26.60;99.90
17795;DHT22;9021;50.882;4.326;2023-07-29T14:11:26;26.70;99.90
17795;DHT22;9021;50.882;4.326;2023-07-29T14:13:52;27.10;99.90
17795;DHT22;9021;50.882;4.326;2023-07-29T14:16:17;27.30;99.90
17795;DHT22;9021;50.882;4.326;2023-07-29T14:18:43;27.00;99.90
17795;DHT22;9021;50.882;4.326;2023-07-29T14:21:08;27.20;99.90
17795;DHT22;9021;50.882;4.326;2023-07-29T14:23:34;27.30;99.90
17795;DHT22;9021;50.882;4.326;2023-07-29T14:25:59;27.40;99.90
17795;DHT22;9021;50.882;4.326;2023-07-29T14:28:25;27.50;99.90
17795;DHT22;9021;50.882;4.326;2023-07-29T14:30:50;27.60;99.90
17795;DHT22;9021;50.882;4.326;2023-07-29T14:33:16;27.20;99.90
17795;DHT22;9021;50.882;4.326;2023-07-29T14:35:41;26.80;99.90
17795;DHT22;9021;50.882;4.326;2023-07-29T14:38:07;26.70;99.90
17795;DHT22;9021;50.882;4.326;2023-07-29T14:40:32;26.30;99.90
17795;DHT22;9021;50.882;4.326;2023-07-29T14:42:57;26.10;99.90
17795;DHT22;9021;50.882;4.326;2023-07-29T14:45:23;26.00;99.90
17795;DHT22;9021;50.882;4.326;2023-07-29T14:47:48;26.10;99.90
17795;DHT22;9021;50.882;4.326;2023-07-29T14:50:14;26.00;99.90
17795;DHT22;9021;50.882;4.326;2023-07-29T14:52:39;25.80;99.90
17795;DHT22;9021;50.882;4.326;2023-07-29T14:55:05;25.70;99.90
17795;DHT22;9021;50.882;4.326;2023-07-29T14:57:31;25.60;99.90
17795;DHT22;9021;50.882;4.326;2023-07-29T14:59:56;25.60;99.90
17795;DHT22;9021;50.882;4.326;2023-07-29T15:02:22;25.50;99.90
17795;DHT22;9021;50.882;4.326;2023-07-29T15:04:48;25.60;99.90
17795;DHT22;9021;50.882;4.326;2023-07-29T15:07:14;25.40;99.90
17795;DHT22;9021;50.882;4.326;2023-07-29T15:09:39;25.30;99.90
17795;DHT22;9021;50.882;4.326;2023-07-29T15:12:05;25.20;99.90
17795;DHT22;9021;50.882;4.326;2023-07-29T15:14:31;25.10;99.90
17795;DHT22;9021;50.882;4.326;2023-07-29T15:16:56;25.10;99.90
17795;DHT22;9021;50.882;4.326;2023-07-29T15:19:22;25.10;99.90
17795;DHT22;9021;50.882;4.326;2023-07-29T15:21:47;25.30;99.90
17795;DHT22;9021;50.882;4.326;2023-07-29T15:24:13;25.40;99.90
17795;DHT22;9021;50.882;4.326;2023-07-29T15:26:39;25.60;99.90
17795;DHT22;9021;50.882;4.326;2023-07-29T15:29:05;25.50;99.90
17795;DHT22;9021;50.882;4.326;2023-07-29T15:31:33;25.40;99.90
17795;DHT22;9021;50.882;4.326;2023-07-29T15:33:58;25.40;99.90
17795;DHT22;9021;50.882;4.326;2023-07-29T15:36:24;25.40;99.90
17795;DHT22;9021;50.882;4.326;2023-07-29T15:38:49;25.30;99.90
17795;DHT22;9021;50.882;4.326;2023-07-29T15:41:15;25.20;99.90
17795;DHT22;9021;50.882;4.326;2023-07-29T15:43:40;25.00;99.90
17795;DHT22;9021;50.882;4.326;2023-07-29T15:46:06;24.90;99.90
17795;DHT22;9021;50.882;4.326;2023-07-29T15:48:31;24.60;99.90